Time;durP1;ratioP1;P1;durP2;ratioP2;P2;SDS_P1;SDS_P2;PMS_P1;PMS_P2;Temp;Humidity;BMP_temperature;BMP_pressure;BME280_temperature;BME280_humidity;BME280_pressure;Samples;Min_cycle;Max_cycle;Signal;HPM_P1;HPM_P2
2023/03/04 00:02:13;;;;;;;37.53;26.60;;;;;;;;;;5052505;28;20835;-73
2023/03/04 00:04:40;;;;;;;40.53;29.70;;;;;;;;;;5053430;28;20457;-74
2023/03/04 00:07:09;;;;;;;46.40;27.30;;;;;;;;;;5050373;28;20449;-74
2023/03/04 00:09:36;;;;;;;46.13;28.00;;;;;;;;;;5050261;28;20446;-74
2023/03/04 00:12:03;;;;;;;36.40;25.27;;;;;;;;;;5049656;28;20620;-73
2023/03/04 00:14:30;;;;;;;42.37;28.27;;;;;;;;;;5049509;28;20481;-74
2023/03/04 00:16:57;;;;;;;36.93;26.00;;;;;;;;;;5049449;28;20469;-73
2023/03/04 00:19:24;;;;;;;42.60;26.40;;;;;;;;;;5049556;28;20497;-75
2023/03/04 00:21:51;;;;;;;37.00;25.17;;;;;;;;;;5048738;28;21003;-73
2023/03/04 00:24:19;;;;;;;37.80;24.90;;;;;;;;;;5048495;28;20465;-75
2023/03/04 00:26:46;;;;;;;33.70;24.60;;;;;;;;;;5049406;28;20441;-74
2023/03/04 00:29:13;;;;;;;36.70;25.80;;;;;;;;;;5049440;28;20864;-74
2023/03/04 00:31:40;;;;;;;36.30;24.03;;;;;;;;;;5049318;28;21105;-75
2023/03/04 00:34:07;;;;;;;39.13;25.30;;;;;;;;;;5049101;28;20480;-73
2023/03/04 00:36:34;;;;;;;35.17;24.70;;;;;;;;;;5049420;28;20453;-74
2023/03/04 00:39:01;;;;;;;38.20;26.47;;;;;;;;;;5052661;28;20874;-73
2023/03/04 00:41:30;;;;;;;34.07;25.03;;;;;;;;;;5053109;28;20461;-75
2023/03/04 00:43:57;;;;;;;38.83;25.40;;;;;;;;;;5052899;28;20461;-74
2023/03/04 00:46:24;;;;;;;33.87;22.90;;;;;;;;;;5053045;28;20930;-74
2023/03/04 00:48:51;;;;;;;36.50;24.77;;;;;;;;;;5052936;28;20445;-74
2023/03/04 00:51:18;;;;;;;36.63;23.63;;;;;;;;;;5052890;28;20437;-75
2023/03/04 00:53:46;;;;;;;34.73;24.63;;;;;;;;;;5052774;28;20500;-74
2023/03/04 00:56:13;;;;;;;33.97;24.70;;;;;;;;;;5052893;28;20445;-73
2023/03/04 00:58:41;;;;;;;34.97;25.40;;;;;;;;;;5053020;28;20453;-76
2023/03/04 01:01:08;;;;;;;32.90;23.37;;;;;;;;;;5052842;28;20476;-74
2023/03/04 01:03:35;;;;;;;34.83;22.70;;;;;;;;;;5052255;28;20469;-74
2023/03/04 01:06:02;;;;;;;30.23;22.40;;;;;;;;;;5052514;28;20468;-74
2023/03/04 01:08:29;;;;;;;33.17;24.23;;;;;;;;;;5052803;28;20805;-74
2023/03/04 01:10:56;;;;;;;30.43;22.60;;;;;;;;;;5052457;28;20449;-74
2023/03/04 01:13:23;;;;;;;34.93;24.57;;;;;;;;;;5052304;28;20481;-73
2023/03/04 01:15:52;;;;;;;36.67;24.30;;;;;;;;;;5052893;28;20940;-76
2023/03/04 01:18:19;;;;;;;32.37;24.67;;;;;;;;;;5052989;28;20457;-73
2023/03/04 01:20:46;;;;;;;33.70;24.13;;;;;;;;;;5052771;28;21073;-73
2023/03/04 01:23:13;;;;;;;36.00;23.10;;;;;;;;;;5052401;28;20458;-74
2023/03/04 01:25:40;;;;;;;31.00;22.90;;;;;;;;;;5053341;28;20824;-75
2023/03/04 01:28:07;;;;;;;33.60;23.70;;;;;;;;;;5053716;28;20938;-74
2023/03/04 01:30:35;;;;;;;35.07;24.83;;;;;;;;;;5052911;28;20933;-73
2023/03/04 01:33:03;;;;;;;34.83;23.40;;;;;;;;;;5052082;28;20457;-73
2023/03/04 01:35:30;;;;;;;34.17;23.77;;;;;;;;;;5052637;28;20449;-73
2023/03/04 01:37:57;;;;;;;31.77;23.63;;;;;;;;;;5052663;28;20457;-73
2023/03/04 01:40:24;;;;;;;32.17;23.13;;;;;;;;;;5052923;28;20549;-72
2023/03/04 01:42:52;;;;;;;34.07;23.87;;;;;;;;;;5053216;28;20523;-72
2023/03/04 01:45:19;;;;;;;33.50;22.57;;;;;;;;;;5053188;28;20456;-73
2023/03/04 01:47:48;;;;;;;38.43;23.43;;;;;;;;;;5053032;28;20449;-74
2023/03/04 01:50:19;;;;;;;31.77;24.40;;;;;;;;;;5054380;28;20475;-73
2023/03/04 01:52:46;;;;;;;34.47;23.17;;;;;;;;;;5052653;28;20476;-73
2023/03/04 01:55:16;;;;;;;32.47;23.43;;;;;;;;;;5051856;28;20484;-74
2023/03/04 01:57:43;;;;;;;37.33;22.80;;;;;;;;;;5051793;28;20446;-73
2023/03/04 02:00:19;;;;;;;32.33;22.50;;;;;;;;;;5051728;28;20521;-74
2023/03/04 02:02:46;;;;;;;33.30;23.23;;;;;;;;;;5052253;28;20491;-74
2023/03/04 02:05:14;;;;;;;34.50;23.37;;;;;;;;;;5051878;28;20449;-74
2023/03/04 02:07:43;;;;;;;31.30;21.40;;;;;;;;;;5052005;28;20816;-74
2023/03/04 02:10:10;;;;;;;32.03;22.93;;;;;;;;;;5053395;28;20833;-74
2023/03/04 02:12:38;;;;;;;32.43;22.40;;;;;;;;;;5052168;28;20885;-74
2023/03/04 02:15:05;;;;;;;34.80;22.50;;;;;;;;;;5051283;28;20477;-74
2023/03/04 02:17:33;;;;;;;28.60;21.60;;;;;;;;;;5066283;28;20437;-75
2023/03/04 02:20:03;;;;;;;28.80;21.53;;;;;;;;;;5071409;28;20513;-74
2023/03/04 02:22:30;;;;;;;30.93;22.13;;;;;;;;;;5071229;28;20465;-74
2023/03/04 02:25:01;;;;;;;26.67;20.53;;;;;;;;;;5071472;28;20548;-74
2023/03/04 02:27:29;;;;;;;31.70;22.63;;;;;;;;;;5071075;28;20452;-74
2023/03/04 02:29:56;;;;;;;31.50;21.20;;;;;;;;;;5070882;28;20456;-75
2023/03/04 02:32:23;;;;;;;32.67;22.93;;;;;;;;;;5070618;28;20468;-74
2023/03/04 02:34:51;;;;;;;30.60;21.33;;;;;;;;;;5070568;28;20602;-75
2023/03/04 02:37:20;;;;;;;31.07;22.33;;;;;;;;;;5070674;28;20498;-74
2023/03/04 02:39:48;;;;;;;28.90;20.70;;;;;;;;;;5070643;28;20449;-73
2023/03/04 02:42:15;;;;;;;33.47;23.60;;;;;;;;;;5070690;28;20471;-76
2023/03/04 02:44:46;;;;;;;28.00;21.27;;;;;;;;;;5070300;28;20450;-75
2023/03/04 02:47:16;;;;;;;29.70;22.17;;;;;;;;;;5070698;28;20449;-74
2023/03/04 02:49:43;;;;;;;30.87;22.60;;;;;;;;;;5070971;28;20544;-74
2023/03/04 02:52:11;;;;;;;31.90;21.50;;;;;;;;;;5070312;28;20437;-73
2023/03/04 02:54:38;;;;;;;30.20;21.03;;;;;;;;;;5070343;28;20645;-73
2023/03/04 02:57:07;;;;;;;30.93;23.17;;;;;;;;;;5070571;28;20520;-73
2023/03/04 02:59:34;;;;;;;25.37;20.17;;;;;;;;;;5070114;28;20494;-74
2023/03/04 03:02:02;;;;;;;26.90;20.43;;;;;;;;;;5069736;28;20456;-74
2023/03/04 03:04:29;;;;;;;36.27;21.60;;;;;;;;;;5069933;28;20459;-74
2023/03/04 03:06:56;;;;;;;29.47;21.60;;;;;;;;;;5070309;28;20802;-74
2023/03/04 03:09:24;;;;;;;33.70;21.60;;;;;;;;;;5070308;28;20520;-74
2023/03/04 03:11:51;;;;;;;28.93;21.77;;;;;;;;;;5070121;28;20936;-73
2023/03/04 03:14:18;;;;;;;29.17;22.83;;;;;;;;;;5069715;28;20476;-73
2023/03/04 03:16:45;;;;;;;30.53;20.57;;;;;;;;;;5070229;28;20444;-73
2023/03/04 03:19:14;;;;;;;29.30;21.07;;;;;;;;;;5069883;28;20444;-74
2023/03/04 03:21:41;;;;;;;30.63;22.07;;;;;;;;;;5069892;28;20457;-74
2023/03/04 03:24:08;;;;;;;31.47;21.13;;;;;;;;;;5069681;28;20933;-74
2023/03/04 03:26:36;;;;;;;31.57;21.20;;;;;;;;;;5069993;28;20924;-73
2023/03/04 03:29:03;;;;;;;27.77;20.83;;;;;;;;;;5070006;28;20437;-74
2023/03/04 03:31:30;;;;;;;30.90;21.13;;;;;;;;;;5069834;28;20444;-76
2023/03/04 03:33:57;;;;;;;30.20;21.47;;;;;;;;;;5069252;28;20826;-74
2023/03/04 03:36:25;;;;;;;28.47;20.40;;;;;;;;;;5069672;28;20949;-74
2023/03/04 03:38:52;;;;;;;29.03;22.77;;;;;;;;;;5070074;28;20441;-74
2023/03/04 03:41:19;;;;;;;38.00;20.97;;;;;;;;;;5069967;28;20453;-74
2023/03/04 03:43:46;;;;;;;31.53;22.53;;;;;;;;;;5069692;28;20472;-74
2023/03/04 03:46:13;;;;;;;27.43;19.60;;;;;;;;;;5069907;28;20817;-73
2023/03/04 03:48:40;;;;;;;30.43;20.37;;;;;;;;;;5069839;28;20451;-76
2023/03/04 03:51:07;;;;;;;30.80;20.47;;;;;;;;;;5069867;28;20784;-74
2023/03/04 03:53:36;;;;;;;27.53;18.93;;;;;;;;;;5069111;28;20806;-73
2023/03/04 03:56:03;;;;;;;29.27;20.47;;;;;;;;;;5069419;28;20444;-73
2023/03/04 03:58:30;;;;;;;29.93;22.10;;;;;;;;;;5069379;28;20440;-74
2023/03/04 04:00:57;;;;;;;28.30;19.93;;;;;;;;;;5069465;28;20448;-74
2023/03/04 04:03:24;;;;;;;29.17;22.20;;;;;;;;;;5069022;28;20526;-73
2023/03/04 04:05:51;;;;;;;27.07;20.50;;;;;;;;;;5069348;28;20448;-72
2023/03/04 04:08:18;;;;;;;28.07;19.90;;;;;;;;;;5069388;28;20566;-74
2023/03/04 04:10:46;;;;;;;29.27;20.63;;;;;;;;;;5069587;28;20432;-74
2023/03/04 04:13:13;;;;;;;28.03;21.10;;;;;;;;;;5071484;28;20471;-73
2023/03/04 04:15:41;;;;;;;31.60;21.07;;;;;;;;;;5073573;28;20491;-74
2023/03/04 04:18:08;;;;;;;30.90;21.20;;;;;;;;;;5054124;28;20833;-73
2023/03/04 04:20:35;;;;;;;25.90;19.87;;;;;;;;;;5054278;28;20449;-73
2023/03/04 04:23:02;;;;;;;33.63;22.17;;;;;;;;;;5053088;28;20515;-73
2023/03/04 04:25:29;;;;;;;37.83;23.80;;;;;;;;;;5053586;28;20465;-74
2023/03/04 04:27:58;;;;;;;31.50;21.00;;;;;;;;;;5053136;28;20445;-73
2023/03/04 04:30:25;;;;;;;37.50;22.80;;;;;;;;;;5053806;28;20953;-74
2023/03/04 04:32:52;;;;;;;30.63;21.57;;;;;;;;;;5054139;28;20469;-74
2023/03/04 04:35:19;;;;;;;30.27;22.00;;;;;;;;;;5053895;28;20508;-73
2023/03/04 04:37:46;;;;;;;28.77;20.97;;;;;;;;;;5053994;28;20453;-75
2023/03/04 04:40:14;;;;;;;34.70;23.33;;;;;;;;;;5053997;28;20449;-73
2023/03/04 04:42:41;;;;;;;34.53;23.73;;;;;;;;;;5053071;28;20497;-75
2023/03/04 04:45:10;;;;;;;29.33;21.87;;;;;;;;;;5053228;28;20934;-73
2023/03/04 04:47:37;;;;;;;31.43;23.10;;;;;;;;;;5052705;28;20449;-74
2023/03/04 04:50:04;;;;;;;27.87;20.73;;;;;;;;;;5053078;28;20532;-75
2023/03/04 04:52:32;;;;;;;30.17;21.63;;;;;;;;;;5052416;28;20528;-74
2023/03/04 04:54:59;;;;;;;29.93;21.10;;;;;;;;;;5052720;28;21160;-74
2023/03/04 04:57:26;;;;;;;32.90;21.03;;;;;;;;;;5052557;28;21081;-73
2023/03/04 04:59:53;;;;;;;30.47;20.33;;;;;;;;;;5052939;28;20445;-75
2023/03/04 05:02:21;;;;;;;30.13;21.60;;;;;;;;;;5052822;28;20461;-73
2023/03/04 05:04:48;;;;;;;31.10;22.00;;;;;;;;;;5051807;28;20938;-74
2023/03/04 05:07:15;;;;;;;34.47;22.70;;;;;;;;;;5051642;28;20491;-74
2023/03/04 05:09:42;;;;;;;39.13;22.63;;;;;;;;;;5051159;28;20595;-74
2023/03/04 05:12:09;;;;;;;34.73;23.10;;;;;;;;;;5051346;28;20538;-74
2023/03/04 05:14:37;;;;;;;31.97;22.67;;;;;;;;;;5051034;28;20888;-73
2023/03/04 05:17:04;;;;;;;30.80;22.37;;;;;;;;;;5051430;28;20535;-75
2023/03/04 05:19:32;;;;;;;33.07;23.13;;;;;;;;;;5051639;28;20874;-74
2023/03/04 05:21:59;;;;;;;31.60;22.10;;;;;;;;;;5050931;28;20464;-74
2023/03/04 05:24:26;;;;;;;30.77;21.90;;;;;;;;;;5050912;28;20446;-73
2023/03/04 05:26:53;;;;;;;28.87;21.47;;;;;;;;;;5051228;28;20457;-73
2023/03/04 05:29:21;;;;;;;31.23;21.57;;;;;;;;;;5050970;28;20786;-73
2023/03/04 05:31:48;;;;;;;27.57;20.37;;;;;;;;;;5051203;28;20449;-73
2023/03/04 05:34:15;;;;;;;31.40;22.07;;;;;;;;;;5050578;28;20470;-73
2023/03/04 05:36:43;;;;;;;33.97;21.63;;;;;;;;;;5051079;28;20488;-75
2023/03/04 05:39:10;;;;;;;32.80;21.40;;;;;;;;;;5050724;28;20445;-74
2023/03/04 05:41:37;;;;;;;29.93;21.10;;;;;;;;;;5051227;28;20426;-74
2023/03/04 05:44:04;;;;;;;36.67;23.50;;;;;;;;;;5050641;28;20474;-75
2023/03/04 05:46:31;;;;;;;30.67;22.50;;;;;;;;;;5050905;28;20807;-75
2023/03/04 05:48:58;;;;;;;33.00;22.20;;;;;;;;;;5051268;28;20450;-75
2023/03/04 05:51:25;;;;;;;31.73;21.47;;;;;;;;;;5051489;28;20500;-75
2023/03/04 05:53:54;;;;;;;34.63;21.47;;;;;;;;;;5053834;28;20468;-74
2023/03/04 05:56:21;;;;;;;33.20;22.17;;;;;;;;;;5057288;28;20703;-74
2023/03/04 05:58:48;;;;;;;34.93;23.63;;;;;;;;;;5057006;28;20442;-73
2023/03/04 06:01:15;;;;;;;37.60;22.63;;;;;;;;;;5057301;28;20445;-74
2023/03/04 06:03:43;;;;;;;36.37;23.80;;;;;;;;;;5050745;28;20466;-75
2023/03/04 06:06:10;;;;;;;33.10;22.50;;;;;;;;;;5015894;28;1037150;-74
2023/03/04 06:08:37;;;;;;;36.30;23.23;;;;;;;;;;5052229;28;20206;-73
2023/03/04 06:11:06;;;;;;;33.90;22.90;;;;;;;;;;5051984;28;20853;-75
2023/03/04 06:13:33;;;;;;;36.70;23.03;;;;;;;;;;5051584;28;20457;-75
2023/03/04 06:16:00;;;;;;;33.10;22.50;;;;;;;;;;5054044;28;20481;-74
2023/03/04 06:18:28;;;;;;;37.20;23.63;;;;;;;;;;5071522;28;20441;-73
2023/03/04 06:20:59;;;;;;;28.47;21.03;;;;;;;;;;5071122;28;20448;-74
2023/03/04 06:23:27;;;;;;;34.00;22.33;;;;;;;;;;5071043;28;20468;-76
2023/03/04 06:25:54;;;;;;;37.93;22.53;;;;;;;;;;5071767;28;20437;-74
2023/03/04 06:28:22;;;;;;;33.57;22.37;;;;;;;;;;5071509;28;20441;-74
2023/03/04 06:30:52;;;;;;;39.20;23.00;;;;;;;;;;5070849;28;20447;-72
2023/03/04 06:33:19;;;;;;;37.67;22.10;;;;;;;;;;5071097;28;20514;-75
2023/03/04 06:35:46;;;;;;;36.67;23.90;;;;;;;;;;5070540;28;20484;-72
2023/03/04 06:38:13;;;;;;;36.93;22.57;;;;;;;;;;5071458;28;20436;-76
2023/03/04 06:40:40;;;;;;;37.77;21.40;;;;;;;;;;5071273;28;20444;-73
2023/03/04 06:43:07;;;;;;;42.17;23.10;;;;;;;;;;5070620;28;20461;-74
2023/03/04 06:45:36;;;;;;;35.33;23.70;;;;;;;;;;5070832;28;20953;-75
2023/03/04 06:48:03;;;;;;;37.23;23.13;;;;;;;;;;5071449;28;20455;-73
2023/03/04 06:50:30;;;;;;;34.60;23.50;;;;;;;;;;5071667;28;20490;-75
2023/03/04 06:52:57;;;;;;;34.43;23.17;;;;;;;;;;5071713;28;21271;-74
2023/03/04 06:55:24;;;;;;;34.80;22.70;;;;;;;;;;5073754;28;20510;-74
2023/03/04 06:57:51;;;;;;;35.97;23.00;;;;;;;;;;5071412;28;20449;-73
2023/03/04 07:00:19;;;;;;;38.73;23.70;;;;;;;;;;5073275;28;20840;-73
2023/03/04 07:02:47;;;;;;;36.40;23.83;;;;;;;;;;5074868;28;20492;-74
2023/03/04 07:05:14;;;;;;;33.83;20.80;;;;;;;;;;5072081;28;20478;-74
2023/03/04 07:07:41;;;;;;;35.23;21.87;;;;;;;;;;5074383;28;20445;-74
2023/03/04 07:10:09;;;;;;;35.47;23.47;;;;;;;;;;5078882;28;20445;-74
2023/03/04 07:12:36;;;;;;;34.03;22.23;;;;;;;;;;5074319;28;20487;-74
2023/03/04 07:15:04;;;;;;;39.37;23.90;;;;;;;;;;5072013;28;20480;-73
2023/03/04 07:17:31;;;;;;;37.83;23.90;;;;;;;;;;5071716;28;20445;-74
2023/03/04 07:19:59;;;;;;;38.90;23.30;;;;;;;;;;5070598;28;20440;-73
2023/03/04 07:22:26;;;;;;;43.80;24.10;;;;;;;;;;5070627;28;20465;-73
2023/03/04 07:24:53;;;;;;;42.63;23.43;;;;;;;;;;5071492;28;20468;-74
2023/03/04 07:27:20;;;;;;;30.10;20.77;;;;;;;;;;5071015;28;20460;-74
2023/03/04 07:29:47;;;;;;;39.50;25.10;;;;;;;;;;5071082;28;20448;-73
2023/03/04 07:32:14;;;;;;;36.10;21.80;;;;;;;;;;5069418;28;20463;-73
2023/03/04 07:34:41;;;;;;;36.20;23.10;;;;;;;;;;5070346;28;20467;-75
2023/03/04 07:37:10;;;;;;;31.20;20.50;;;;;;;;;;5070246;28;20510;-74
2023/03/04 07:39:37;;;;;;;37.30;22.23;;;;;;;;;;5070142;28;20452;-74
2023/03/04 07:42:04;;;;;;;33.23;20.83;;;;;;;;;;5070173;28;20445;-73
2023/03/04 07:44:31;;;;;;;30.20;19.80;;;;;;;;;;5069822;28;20448;-75
2023/03/04 07:46:58;;;;;;;38.30;22.00;;;;;;;;;;5070080;28;20452;-74
2023/03/04 07:49:25;;;;;;;34.50;21.90;;;;;;;;;;5069868;28;20454;-75
2023/03/04 07:51:52;;;;;;;33.50;20.03;;;;;;;;;;5070075;28;20452;-74
2023/03/04 07:54:20;;;;;;;30.70;20.10;;;;;;;;;;5069853;28;20472;-73
2023/03/04 07:56:47;;;;;;;27.70;18.93;;;;;;;;;;5069981;28;20476;-76
2023/03/04 07:59:14;;;;;;;31.00;20.93;;;;;;;;;;5070249;28;20445;-75
2023/03/04 08:01:41;;;;;;;35.20;20.67;;;;;;;;;;5070133;28;20453;-75
2023/03/04 08:04:08;;;;;;;34.03;20.37;;;;;;;;;;5069543;28;20468;-73
2023/03/04 08:06:36;;;;;;;32.07;20.40;;;;;;;;;;5069670;28;20437;-75
2023/03/04 08:09:04;;;;;;;38.40;21.63;;;;;;;;;;5069436;28;20448;-74
2023/03/04 08:11:33;;;;;;;30.93;19.97;;;;;;;;;;5069730;28;20468;-73
2023/03/04 08:14:00;;;;;;;36.17;21.70;;;;;;;;;;5069428;28;20869;-74
2023/03/04 08:16:27;;;;;;;38.13;23.33;;;;;;;;;;5063246;28;20487;-74
2023/03/04 08:18:55;;;;;;;32.33;19.67;;;;;;;;;;5049549;28;20451;-74
2023/03/04 08:21:23;;;;;;;34.80;21.70;;;;;;;;;;5049257;28;20446;-75
2023/03/04 08:23:51;;;;;;;29.43;18.70;;;;;;;;;;5049591;28;20480;-74
2023/03/04 08:26:19;;;;;;;31.97;20.40;;;;;;;;;;5049845;28;20453;-75
2023/03/04 08:28:48;;;;;;;42.17;21.83;;;;;;;;;;5049750;28;20430;-75
2023/03/04 08:31:15;;;;;;;34.53;21.30;;;;;;;;;;5049813;28;20445;-74
2023/03/04 08:33:42;;;;;;;30.63;19.63;;;;;;;;;;5049050;28;20565;-74
2023/03/04 08:36:10;;;;;;;30.83;20.20;;;;;;;;;;5049302;28;20848;-74
2023/03/04 08:38:37;;;;;;;32.70;21.10;;;;;;;;;;5049534;28;20449;-74
2023/03/04 08:41:04;;;;;;;32.57;21.27;;;;;;;;;;5049663;28;20461;-76
2023/03/04 08:43:32;;;;;;;35.63;20.97;;;;;;;;;;5049182;28;20458;-73
2023/03/04 08:46:00;;;;;;;35.23;21.57;;;;;;;;;;5049459;28;20812;-75
2023/03/04 08:48:27;;;;;;;37.43;22.43;;;;;;;;;;5049719;28;20464;-74
2023/03/04 08:50:54;;;;;;;31.97;21.00;;;;;;;;;;5061464;28;21166;-74
2023/03/04 08:53:22;;;;;;;38.93;21.57;;;;;;;;;;5069562;28;20468;-75
2023/03/04 08:55:49;;;;;;;34.30;23.20;;;;;;;;;;5069745;28;20476;-77
2023/03/04 08:58:16;;;;;;;39.83;21.57;;;;;;;;;;5070451;28;20456;-76
2023/03/04 09:00:47;;;;;;;39.50;20.43;;;;;;;;;;5073188;28;20444;-75
2023/03/04 09:03:17;;;;;;;33.30;21.30;;;;;;;;;;5072595;28;20476;-77
2023/03/04 09:05:45;;;;;;;32.97;22.07;;;;;;;;;;5073323;28;20867;-75
2023/03/04 09:08:12;;;;;;;34.63;21.90;;;;;;;;;;5073200;28;20452;-78
2023/03/04 09:10:39;;;;;;;34.87;21.40;;;;;;;;;;5073362;28;20467;-77
2023/03/04 09:13:06;;;;;;;31.20;20.70;;;;;;;;;;5072912;28;20468;-77
2023/03/04 09:15:34;;;;;;;34.30;20.43;;;;;;;;;;5072554;28;20968;-75
2023/03/04 09:18:02;;;;;;;33.47;21.77;;;;;;;;;;5054190;28;20441;-77
2023/03/04 09:20:30;;;;;;;30.40;20.60;;;;;;;;;;5053276;28;20449;-75
2023/03/04 09:22:57;;;;;;;30.20;21.37;;;;;;;;;;5052683;28;20473;-77
2023/03/04 09:25:24;;;;;;;35.13;19.90;;;;;;;;;;5052790;28;20449;-76
2023/03/04 09:27:51;;;;;;;33.60;20.57;;;;;;;;;;5052836;28;20449;-78
2023/03/04 09:30:19;;;;;;;33.97;19.93;;;;;;;;;;5057020;28;20471;-77
2023/03/04 09:32:46;;;;;;;31.30;19.70;;;;;;;;;;5072600;28;20465;-75
2023/03/04 09:35:13;;;;;;;31.53;20.63;;;;;;;;;;5072542;28;20824;-75
2023/03/04 09:37:41;;;;;;;27.33;19.77;;;;;;;;;;5073011;28;20488;-77
2023/03/04 09:40:10;;;;;;;32.03;18.60;;;;;;;;;;5073015;28;20449;-74
2023/03/04 09:42:38;;;;;;;31.10;20.10;;;;;;;;;;5072061;28;20469;-76
2023/03/04 09:45:06;;;;;;;27.93;19.47;;;;;;;;;;5072782;28;20807;-76
2023/03/04 09:47:34;;;;;;;29.60;18.80;;;;;;;;;;5072197;28;20946;-75
2023/03/04 09:50:04;;;;;;;26.87;18.73;;;;;;;;;;5072505;28;20455;-77
2023/03/04 09:52:38;;;;;;;27.27;18.17;;;;;;;;;;5072089;28;20465;-75
2023/03/04 09:55:14;;;;;;;26.00;18.83;;;;;;;;;;5072484;28;20458;-77
2023/03/04 09:57:44;;;;;;;27.40;18.80;;;;;;;;;;5071433;28;20551;-77
2023/03/04 10:00:18;;;;;;;28.03;19.70;;;;;;;;;;5066812;28;20446;-75
2023/03/04 10:02:47;;;;;;;27.13;19.47;;;;;;;;;;5055735;28;20523;-76
2023/03/04 10:05:17;;;;;;;26.00;18.13;;;;;;;;;;5052225;28;20461;-77
2023/03/04 10:07:47;;;;;;;29.97;20.63;;;;;;;;;;5051786;28;20961;-75
2023/03/04 10:10:17;;;;;;;25.30;19.97;;;;;;;;;;5050983;28;20444;-76
2023/03/04 10:12:45;;;;;;;30.33;20.50;;;;;;;;;;5051534;28;20481;-75
2023/03/04 10:15:19;;;;;;;42.33;21.10;;;;;;;;;;5053819;28;20441;-75
2023/03/04 10:17:47;;;;;;;28.10;21.03;;;;;;;;;;5053472;28;20844;-75
2023/03/04 10:20:19;;;;;;;28.43;20.03;;;;;;;;;;5054614;28;20457;-76
2023/03/04 10:22:47;;;;;;;31.47;21.80;;;;;;;;;;5054458;28;20469;-76
2023/03/04 10:25:20;;;;;;;32.67;22.37;;;;;;;;;;5053795;28;20442;-75
2023/03/04 10:27:50;;;;;;;36.67;22.80;;;;;;;;;;5051664;28;20789;-75
2023/03/04 10:30:21;;;;;;;72.47;45.73;;;;;;;;;;5051855;28;20425;-76
2023/03/04 10:32:48;;;;;;;38.00;23.50;;;;;;;;;;5051795;28;20477;-76
2023/03/04 10:35:15;;;;;;;34.43;23.50;;;;;;;;;;5051686;28;20468;-75
2023/03/04 10:37:47;;;;;;;30.73;22.03;;;;;;;;;;5051563;28;20492;-75
2023/03/04 10:40:24;;;;;;;35.07;22.20;;;;;;;;;;5051750;28;20568;-77
2023/03/04 10:42:51;;;;;;;33.10;23.30;;;;;;;;;;5051012;28;20465;-76
2023/03/04 10:45:22;;;;;;;35.80;23.70;;;;;;;;;;5051328;28;20441;-76
2023/03/04 10:47:53;;;;;;;36.40;23.43;;;;;;;;;;5051590;28;20450;-76
2023/03/04 10:50:24;;;;;;;36.57;23.40;;;;;;;;;;5051562;28;20469;-76
2023/03/04 10:52:54;;;;;;;36.07;24.13;;;;;;;;;;5051828;28;20551;-77
2023/03/04 10:55:24;;;;;;;36.20;23.77;;;;;;;;;;5051992;28;20481;-75
2023/03/04 10:57:52;;;;;;;32.67;24.37;;;;;;;;;;5051201;28;20476;-76
2023/03/04 11:00:25;;;;;;;43.53;24.63;;;;;;;;;;5051616;28;20448;-77
2023/03/04 11:02:52;;;;;;;34.90;24.27;;;;;;;;;;5051429;28;20500;-77
2023/03/04 11:05:21;;;;;;;38.00;24.90;;;;;;;;;;5051303;28;20839;-77
2023/03/04 11:07:49;;;;;;;36.37;23.93;;;;;;;;;;5051638;28;20445;-76
2023/03/04 11:10:18;;;;;;;34.47;25.07;;;;;;;;;;5052505;28;20441;-75
2023/03/04 11:12:50;;;;;;;35.40;25.20;;;;;;;;;;5051816;28;21143;-76
2023/03/04 11:15:19;;;;;;;41.20;26.83;;;;;;;;;;5052537;28;20501;-75
2023/03/04 11:17:49;;;;;;;37.83;26.73;;;;;;;;;;5052095;28;20515;-75
2023/03/04 11:20:17;;;;;;;43.10;28.40;;;;;;;;;;5050597;28;20438;-74
2023/03/04 11:22:45;;;;;;;40.50;25.30;;;;;;;;;;5049870;28;20469;-75
2023/03/04 11:25:20;;;;;;;35.93;25.70;;;;;;;;;;5050677;28;20960;-76
2023/03/04 11:27:49;;;;;;;41.80;27.27;;;;;;;;;;5050575;28;20438;-75
2023/03/04 11:30:22;;;;;;;38.60;27.77;;;;;;;;;;5051181;28;20445;-76
2023/03/04 11:32:51;;;;;;;42.47;27.07;;;;;;;;;;5051031;28;20465;-76
2023/03/04 11:35:21;;;;;;;40.37;27.90;;;;;;;;;;5051332;28;20437;-77
2023/03/04 11:37:53;;;;;;;42.73;28.70;;;;;;;;;;5050462;28;20572;-76
2023/03/04 11:40:25;;;;;;;44.57;28.67;;;;;;;;;;5052861;28;20445;-76
2023/03/04 11:42:54;;;;;;;100.80;61.83;;;;;;;;;;5052255;28;20472;-76
2023/03/04 11:45:26;;;;;;;48.00;31.43;;;;;;;;;;5052170;28;20541;-76
2023/03/04 11:47:59;;;;;;;43.83;30.40;;;;;;;;;;5051016;28;20791;-75
2023/03/04 11:50:31;;;;;;;44.00;30.17;;;;;;;;;;5050031;28;20988;-74
2023/03/04 11:53:18;;;;;;;45.33;28.57;;;;;;;;;;5049944;28;21130;-75
2023/03/04 11:55:48;;;;;;;46.13;30.37;;;;;;;;;;5050264;28;20449;-75
2023/03/04 11:58:34;;;;;;;44.13;29.77;;;;;;;;;;5050051;28;20489;-76
2023/03/04 12:01:05;;;;;;;47.30;30.07;;;;;;;;;;5050865;28;20445;-74
2023/03/04 12:03:45;;;;;;;48.70;30.67;;;;;;;;;;5050228;28;20473;-75
2023/03/04 12:06:13;;;;;;;47.07;30.40;;;;;;;;;;5049305;28;20453;-75
2023/03/04 12:08:52;;;;;;;44.50;29.90;;;;;;;;;;5049844;28;20904;-77
2023/03/04 12:11:22;;;;;;;51.37;31.50;;;;;;;;;;5050180;28;20449;-75
2023/03/04 12:14:02;;;;;;;46.90;32.93;;;;;;;;;;5049643;28;20469;-75
2023/03/04 12:16:47;;;;;;;44.80;29.50;;;;;;;;;;5049860;28;20434;-74
2023/03/04 12:19:25;;;;;;;47.30;31.80;;;;;;;;;;5049767;28;20772;-75
2023/03/04 12:22:00;;;;;;;48.60;28.93;;;;;;;;;;5050272;28;20495;-75
2023/03/04 12:24:44;;;;;;;55.17;31.60;;;;;;;;;;5063411;28;20888;-74
2023/03/04 12:27:17;;;;;;;49.60;32.00;;;;;;;;;;5069715;28;20447;-75
2023/03/04 12:29:47;;;;;;;44.83;30.47;;;;;;;;;;5070149;28;20464;-76
2023/03/04 12:32:18;;;;;;;46.90;30.23;;;;;;;;;;5069954;28;20437;-75
2023/03/04 12:34:55;;;;;;;53.10;30.63;;;;;;;;;;5073024;28;20455;-76
2023/03/04 12:37:30;;;;;;;50.50;31.17;;;;;;;;;;5073837;28;20479;-76
2023/03/04 12:40:05;;;;;;;49.10;30.57;;;;;;;;;;5073998;28;20432;-75
2023/03/04 12:42:37;;;;;;;49.17;31.70;;;;;;;;;;5073486;28;20488;-76
2023/03/04 12:45:13;;;;;;;42.60;29.17;;;;;;;;;;5073184;28;20456;-75
2023/03/04 12:47:45;;;;;;;47.33;30.57;;;;;;;;;;5073340;28;20447;-74
2023/03/04 12:50:24;;;;;;;47.37;31.00;;;;;;;;;;5073461;28;20444;-77
2023/03/04 12:52:54;;;;;;;51.60;32.73;;;;;;;;;;5074605;28;20464;-77
2023/03/04 12:55:24;;;;;;;48.73;33.43;;;;;;;;;;5074457;28;20912;-77
2023/03/04 12:57:52;;;;;;;49.17;30.13;;;;;;;;;;5072841;28;20563;-75
2023/03/04 13:00:23;;;;;;;45.23;30.03;;;;;;;;;;5073207;28;20497;-75
2023/03/04 13:03:00;;;;;;;45.17;31.90;;;;;;;;;;5072825;28;20475;-76
2023/03/04 13:05:37;;;;;;;50.17;32.00;;;;;;;;;;5073591;28;20460;-76
2023/03/04 13:08:11;;;;;;;50.20;32.23;;;;;;;;;;5074626;28;20440;-76
2023/03/04 13:10:38;;;;;;;47.23;29.90;;;;;;;;;;5073617;28;20445;-75
2023/03/04 13:13:05;;;;;;;47.63;31.90;;;;;;;;;;5073888;28;20631;-77
2023/03/04 13:15:34;;;;;;;47.60;31.53;;;;;;;;;;5073401;28;20444;-77
2023/03/04 13:18:02;;;;;;;43.73;30.13;;;;;;;;;;5053623;28;20512;-77
2023/03/04 13:20:37;;;;;;;48.77;30.10;;;;;;;;;;5053497;28;20450;-74
2023/03/04 13:23:04;;;;;;;48.50;30.33;;;;;;;;;;5052878;28;20468;-77
2023/03/04 13:25:36;;;;;;;46.07;30.13;;;;;;;;;;5052947;28;20442;-74
2023/03/04 13:28:11;;;;;;;49.60;30.33;;;;;;;;;;5053302;28;20545;-76
2023/03/04 13:30:59;;;;;;;48.77;30.00;;;;;;;;;;5053011;28;20453;-77
2023/03/04 13:33:46;;;;;;;45.60;28.60;;;;;;;;;;5051906;28;20476;-74
2023/03/04 13:36:32;;;;;;;39.73;25.50;;;;;;;;;;5052246;28;21097;-76
2023/03/04 13:39:00;;;;;;;37.53;24.60;;;;;;;;;;5052427;28;20997;-76
2023/03/04 13:41:31;;;;;;;38.13;24.30;;;;;;;;;;5052544;28;20441;-75
2023/03/04 13:43:58;;;;;;;35.60;21.50;;;;;;;;;;5052005;28;20504;-75
2023/03/04 13:46:29;;;;;;;39.17;24.13;;;;;;;;;;5052587;28;20585;-73
2023/03/04 13:49:01;;;;;;;41.20;22.07;;;;;;;;;;5052340;28;20449;-75
2023/03/04 13:51:31;;;;;;;36.43;21.30;;;;;;;;;;5052401;28;20450;-76
2023/03/04 13:54:08;;;;;;;32.63;20.13;;;;;;;;;;5051730;28;20465;-75
2023/03/04 13:56:35;;;;;;;29.27;20.00;;;;;;;;;;5052294;28;20442;-75
2023/03/04 13:59:15;;;;;;;29.00;18.40;;;;;;;;;;5052892;28;20466;-76
2023/03/04 14:01:51;;;;;;;32.90;18.77;;;;;;;;;;5053005;28;20945;-75
2023/03/04 14:04:19;;;;;;;30.50;18.70;;;;;;;;;;5051957;28;20483;-76
2023/03/04 14:06:48;;;;;;;23.60;17.50;;;;;;;;;;5052109;28;20449;-75
2023/03/04 14:09:15;;;;;;;23.43;16.50;;;;;;;;;;5052113;28;20437;-76
2023/03/04 14:11:43;;;;;;;28.03;17.20;;;;;;;;;;5051940;28;20579;-76
2023/03/04 14:14:12;;;;;;;26.43;17.57;;;;;;;;;;5051795;28;20524;-76
2023/03/04 14:16:40;;;;;;;21.60;16.10;;;;;;;;;;5052157;28;20449;-75
2023/03/04 14:19:09;;;;;;;22.80;16.43;;;;;;;;;;5051908;28;20855;-76
2023/03/04 14:21:36;;;;;;;26.43;16.70;;;;;;;;;;5051507;28;20445;-76
2023/03/04 14:24:06;;;;;;;25.70;16.13;;;;;;;;;;5051180;28;20504;-76
2023/03/04 14:26:33;;;;;;;27.00;16.70;;;;;;;;;;5055635;28;20445;-74